地図

経路データ

SID SEASON NUMBER BASIN SUBBASIN NAME ISO_TIME NATURE LAT LON WMO_WIND WMO_PRES WMO_AGENCY TRACK_TYPE DIST2LAND LANDFALL IFLAG USA_AGENCY USA_ATCF_ID USA_LAT USA_LON USA_RECORD USA_STATUS USA_WIND USA_PRES USA_SSHS USA_R34_NE USA_R34_SE USA_R34_SW USA_R34_NW USA_R50_NE USA_R50_SE USA_R50_SW USA_R50_NW USA_R64_NE USA_R64_SE USA_R64_SW USA_R64_NW USA_POCI USA_ROCI USA_RMW USA_EYE TOKYO_LAT TOKYO_LON TOKYO_GRADE TOKYO_WIND TOKYO_PRES TOKYO_R50_DIR TOKYO_R50_LONG TOKYO_R50_SHORT TOKYO_R30_DIR TOKYO_R30_LONG TOKYO_R30_SHORT TOKYO_LAND CMA_LAT CMA_LON CMA_CAT CMA_WIND CMA_PRES HKO_LAT HKO_LON HKO_CAT HKO_WIND HKO_PRES NEWDELHI_LAT NEWDELHI_LON NEWDELHI_GRADE NEWDELHI_WIND NEWDELHI_PRES NEWDELHI_CI NEWDELHI_DP NEWDELHI_POCI REUNION_LAT REUNION_LON REUNION_TYPE REUNION_WIND REUNION_PRES REUNION_TNUM REUNION_CI REUNION_RMW REUNION_R34_NE REUNION_R34_SE REUNION_R34_SW REUNION_R34_NW REUNION_R50_NE REUNION_R50_SE REUNION_R50_SW REUNION_R50_NW REUNION_R64_NE REUNION_R64_SE REUNION_R64_SW REUNION_R64_NW BOM_LAT BOM_LON BOM_TYPE BOM_WIND BOM_PRES BOM_TNUM BOM_CI BOM_RMW BOM_R34_NE BOM_R34_SE BOM_R34_SW BOM_R34_NW BOM_R50_NE BOM_R50_SE BOM_R50_SW BOM_R50_NW BOM_R64_NE BOM_R64_SE BOM_R64_SW BOM_R64_NW BOM_ROCI BOM_POCI BOM_EYE BOM_POS_METHOD BOM_PRES_METHOD NADI_LAT NADI_LON NADI_CAT NADI_WIND NADI_PRES WELLINGTON_LAT WELLINGTON_LON WELLINGTON_WIND WELLINGTON_PRES DS824_LAT DS824_LON DS824_STAGE DS824_WIND DS824_PRES TD9636_LAT TD9636_LON TD9636_STAGE TD9636_WIND TD9636_PRES TD9635_LAT TD9635_LON TD9635_WIND TD9635_PRES TD9635_ROCI NEUMANN_LAT NEUMANN_LON NEUMANN_CLASS NEUMANN_WIND NEUMANN_PRES MLC_LAT MLC_LON MLC_CLASS MLC_WIND MLC_PRES USA_GUST BOM_GUST BOM_GUST_PER REUNION_GUST REUNION_GUST_PER USA_SEAHGT USA_SEARAD_NE USA_SEARAD_SE USA_SEARAD_SW USA_SEARAD_NW STORM_SPEED STORM_DIR
1945204N09137 1945 38 WP MM EDNA 1945-07-23 09:00:00 NR 9.40000 137.000 main 1142 1142 __________O___ -1 9.40000 137.000 4 31 47
1945204N09137 1945 38 WP MM EDNA 1945-07-23 12:00:00 NR 10.4477 138.151 main 1276 1276 __________P___ -1 10.4477 138.151 4 31 47
1945204N09137 1945 38 WP MM EDNA 1945-07-23 15:00:00 NR 11.4651 139.275 main 1426 1426 __________P___ -1 11.4651 139.275 4 29 47
1945204N09137 1945 38 WP MM EDNA 1945-07-23 18:00:00 NR 12.4245 140.337 main 1556 1556 __________P___ -1 12.4245 140.337 4 27 47
1945204N09137 1945 38 WP MM EDNA 1945-07-23 21:00:00 NR 13.3000 141.300 main 1688 1688 __________O___ -1 13.3000 141.300 4 24 47
1945204N09137 1945 38 WP MM EDNA 1945-07-24 00:00:00 NR 14.0735 142.138 main 1803 1803 __________P___ -1 14.0735 142.138 4 21 46
1945204N09137 1945 38 WP MM EDNA 1945-07-24 03:00:00 NR 14.7545 142.867 main 1902 1902 __________P___ -1 14.7545 142.867 4 19 46
1945204N09137 1945 38 WP MM EDNA 1945-07-24 06:00:00 NR 15.3585 143.513 main 1976 1976 __________P___ -1 15.3585 143.513 4 17 46
1945204N09137 1945 38 WP MM EDNA 1945-07-24 09:00:00 NR 15.9000 144.100 main 2035 2035 __________O___ -1 15.9000 144.100 4 15 47
1945204N09137 1945 38 WP MM EDNA 1945-07-24 12:00:00 NR 16.4022 144.677 main 2082 2074 __________P___ -1 16.4022 144.677 4 14 48
1945204N09137 1945 38 WP MM EDNA 1945-07-24 15:00:00 NR 16.8510 145.205 main 2069 2048 __________P___ -1 16.8510 145.205 4 13 48
1945204N09137 1945 38 WP MM EDNA 1945-07-24 18:00:00 NR 17.2743 145.705 main 2048 2016 __________P___ -1 17.2743 145.705 4 13 48
1945204N09137 1945 38 WP MM EDNA 1945-07-24 21:00:00 NR 17.7000 146.200 main 2019 1989 __________O___ -1 17.7000 146.200 4 13 47
1945204N09137 1945 38 WP MM EDNA 1945-07-25 00:00:00 NR 18.1756 146.733 main 1982 1953 __________P___ -1 18.1756 146.733 4 14 47
1945204N09137 1945 38 WP MM EDNA 1945-07-25 03:00:00 NR 18.6571 147.265 main 1950 1924 __________P___ -1 18.6571 147.265 4 14 46
1945204N09137 1945 38 WP MM EDNA 1945-07-25 06:00:00 NR 19.1351 147.790 main 1928 1897 __________P___ -1 19.1351 147.790 4 14 46
1945204N09137 1945 38 WP MM EDNA 1945-07-25 09:00:00 NR 19.6000 148.300 main 1897 1868 __________O___ -1 19.6000 148.300 4 14 46
1945204N09137 1945 38 WP MM EDNA 1945-07-25 12:00:00 NR 20.0801 148.842 main 1868 1852 __________P___ -1 20.0801 148.842 4 14 47
1945204N09137 1945 38 WP MM EDNA 1945-07-25 15:00:00 NR 20.5403 149.361 main 1857 1832 __________P___ -1 20.5403 149.361 4 13 46
1945204N09137 1945 38 WP MM EDNA 1945-07-25 18:00:00 NR 20.9553 149.826 main 1828 1820 __________P___ -1 20.9553 149.826 4 11 46
1945204N09137 1945 38 WP MM EDNA 1945-07-25 21:00:00 NR 21.3000 150.200 main 1820 1812 __________O___ -1 21.3000 150.200 4 8 44
1945204N09137 1945 38 WP MM EDNA 1945-07-26 00:00:00 NR 21.5500 150.441 main 1802 1798 __________P___ -1 21.5500 150.441 4 6 40
1945204N09137 1945 38 WP MM EDNA 1945-07-26 03:00:00 NR 21.7314 150.592 main 1803 1790 __________P___ -1 21.7314 150.592 4 4 36
1945204N09137 1945 38 WP MM EDNA 1945-07-26 06:00:00 NR 21.8722 150.697 main 1790 1786 __________P___ -1 21.8722 150.697 4 3 36
1945204N09137 1945 38 WP MM EDNA 1945-07-26 09:00:00 NR 22.0000 150.800 main 1786 1782 __________O___ -1 22.0000 150.800 4 4 44
1945204N09137 1945 38 WP MM EDNA 1945-07-26 12:00:00 NR 22.1369 150.972 main 1787 1774 __________P___ -1 22.1369 150.972 4 4 50
1945204N09137 1945 38 WP MM EDNA 1945-07-26 15:00:00 NR 22.2700 151.150 main 1780 1776 __________P___ -1 22.2700 151.150 4 4 50
1945204N09137 1945 38 WP MM EDNA 1945-07-26 18:00:00 NR 22.4181 151.328 main 1776 1769 __________P___ -1 22.4181 151.328 4 5 45
1945204N09137 1945 38 WP MM EDNA 1945-07-26 21:00:00 NR 22.6000 151.500 main 1769 1757 __________O___ -1 22.6000 151.500 4 5 37
1945204N09137 1945 38 WP MM EDNA 1945-07-27 00:00:00 NR 22.8391 151.677 main 1763 1742 __________P___ -1 22.8391 151.677 4 6 32
1945204N09137 1945 38 WP MM EDNA 1945-07-27 03:00:00 NR 23.1126 151.845 main 1742 1728 __________P___ -1 23.1126 151.845 4 6 27
1945204N09137 1945 38 WP MM EDNA 1945-07-27 06:00:00 NR 23.4047 151.990 main 1728 1701 __________P___ -1 23.4047 151.990 4 6 22
1945204N09137 1945 38 WP MM EDNA 1945-07-27 09:00:00 NR 23.7000 152.100 main 1708 1708 __________O___ -1 23.7000 152.100 4 9 107
1945204N09137 1945 38 WP MM EDNA 1945-07-27 12:00:00 TS 23.1285 152.956 main 1817 1817 O________OPO__ jtwc_wp WP081945 22.0000 154.000 35 0 22.0000 154.000 TC 35 23.9749 152.173 4 22.0000 154.000 35 998 180 11 116
1945204N09137 1945 38 WP MM EDNA 1945-07-27 15:00:00 TS 23.2074 153.209 main 1822 1796 P________PPP__ WP081945 22.5125 153.875 35 0 22.5125 153.875 TC 35 24.2499 152.210 4 22.5125 153.875 35 998 180 4 38
1945204N09137 1945 38 WP MM EDNA 1945-07-27 18:00:00 TS 23.4692 153.244 main 1796 1764 O________OPO__ jtwc_wp WP081945 23.0000 153.700 35 0 23.0000 153.700 TC 35 24.5249 152.217 4 23.0000 153.700 35 998 180 6 353
1945204N09137 1945 38 WP MM EDNA 1945-07-27 21:00:00 TS 23.7876 153.138 main 1764 1724 P________POP__ WP081945 23.4501 153.450 35 0 23.4501 153.450 TC 35 24.8000 152.200 4 23.4501 153.450 35 998 240 8 340
1945204N09137 1945 38 WP MM EDNA 1945-07-28 00:00:00 TS 24.1927 152.948 main 1717 1677 O________OPO__ jtwc_wp WP081945 23.9000 153.200 35 0 23.9000 153.200 TC 35 25.0709 152.192 4 23.9000 153.200 35 998 300 9 341
1945204N09137 1945 38 WP MM EDNA 1945-07-28 03:00:00 TS 24.6243 152.822 main 1677 1629 P________PPP__ WP081945 24.3849 153.042 35 0 24.3849 153.042 TC 35 25.3424 152.160 4 24.3849 153.042 35 997 300 9 346
1945204N09137 1945 38 WP MM EDNA 1945-07-28 06:00:00 TS 25.0794 152.699 main 1629 1583 O________OPO__ jtwc_wp WP081945 24.9000 152.900 35 0 24.9000 152.900 TC 35 25.6177 152.098 4 24.9000 152.900 35 996 300 10 343
1945204N09137 1945 38 WP MM EDNA 1945-07-28 09:00:00 TS 25.5626 152.508 main 1575 1529 P________POP__ WP081945 25.4501 152.678 37 0 25.4501 152.678 TC 37 25.9000 152.000 4 25.4501 152.678 37 995 300 10 341
1945204N09137 1945 38 WP MM EDNA 1945-07-28 12:00:00 TS 26.0533 152.338 main 1521 1490 O________OPO__ jtwc_wp WP081945 26.0000 152.500 40 0 26.0000 152.500 TC 40 26.2133 151.853 4 26.0000 152.500 40 995 300 10 347
1945204N09137 1945 38 WP MM EDNA 1945-07-28 15:00:00 TS 26.5131 152.271 main 1490 1451 P________PPP__ WP081945 26.5074 152.470 40 0 26.5074 152.470 TC 40 26.5302 151.673 4 26.5074 152.470 40 995 300 9 355
1945204N09137 1945 38 WP MM EDNA 1945-07-28 18:00:00 TS 26.9580 152.245 main 1443 1412 O________OPO__ jtwc_wp WP081945 27.0000 152.500 40 0 27.0000 152.500 TC 40 26.8320 151.481 4 27.0000 152.500 40 995 300 9 357
1945204N09137 1945 38 WP MM EDNA 1945-07-28 21:00:00 TS 27.4000 152.206 main 1412 1381 P________POP__ WP081945 27.5000 152.507 40 0 27.5000 152.507 TC 40 27.1000 151.300 4 27.5000 152.507 40 995 270 9 356
1945204N09137 1945 38 WP MM EDNA 1945-07-29 00:00:00 TS 27.8277 152.166 main 1381 1344 O________OPO__ jtwc_wp WP081945 28.0000 152.500 40 0 28.0000 152.500 TC 40 27.3108 151.164 4 28.0000 152.500 40 995 240 9 354
1945204N09137 1945 38 WP MM EDNA 1945-07-29 03:00:00 TS 28.2468 152.098 main 1344 1308 P________PPP__ WP081945 28.5000 152.450 40 0 28.5000 152.450 TC 40 27.4873 151.042 4 28.5000 152.450 40 995 240 8 345
1945204N09137 1945 38 WP MM EDNA 1945-07-29 06:00:00 TS 28.5831 151.946 main 1300 1278 O________OPO__ jtwc_wp WP081945 29.0000 152.400 40 0 29.0000 152.400 TC 40 27.6452 150.924 4 29.0000 152.400 40 995 240 7 332
1945204N09137 1945 38 WP MM EDNA 1945-07-29 09:00:00 TS 28.8200 151.752 main 1278 1249 P________POP__ WP081945 29.5000 152.387 37 0 29.5000 152.387 TC 37 27.8000 150.800 4 29.5000 152.387 37 995 270 5 298
1945204N09137 1945 38 WP MM EDNA 1945-07-29 12:00:00 TS 28.8240 151.427 main 1249 1241 O________OPO__ jtwc_wp WP081945 30.0000 152.400 35 0 30.0000 152.400 TC 35 27.9420 150.697 4 30.0000 152.400 35 995 300 13 235
1945204N09137 1945 38 WP MM EDNA 1945-07-29 15:00:00 NR 28.0892 150.580 main 1245 1223 __________P___ WP081945 -1 TC 28.0892 150.580 4 10 238
1945204N09137 1945 38 WP MM EDNA 1945-07-29 18:00:00 NR 28.2668 150.424 main 1215 1186 __________P___ -1 28.2668 150.424 4 5 321
1945204N09137 1945 38 WP MM EDNA 1945-07-29 21:00:00 NR 28.5000 150.200 main 1186 1134 __________O___ -1 28.5000 150.200 4 8 314
1945204N09137 1945 38 WP MM EDNA 1945-07-30 00:00:00 NR 28.8110 149.774 main 1134 1068 __________P___ -1 28.8110 149.774 4 10 310
1945204N09137 1945 38 WP MM EDNA 1945-07-30 03:00:00 NR 29.1772 149.293 main 1068 1010 __________P___ -1 29.1772 149.293 4 11 314
1945204N09137 1945 38 WP MM EDNA 1945-07-30 06:00:00 NR 29.5794 148.865 main 1010 958 __________P___ -1 29.5794 148.865 4 10 324
1945204N09137 1945 38 WP MM EDNA 1945-07-30 09:00:00 NR 30.0000 148.600 main 958 928 __________O___ -1 30.0000 148.600 4 9 344
1945204N09137 1945 38 WP MM EDNA 1945-07-30 12:00:00 NR 30.4246 148.580 main 928 906 __________P___ -1 30.4246 148.580 4 9 10
1945204N09137 1945 38 WP MM EDNA 1945-07-30 15:00:00 NR 30.8501 148.768 main 906 900 __________P___ -1 30.8501 148.768 4 10 28
1945204N09137 1945 38 WP MM EDNA 1945-07-30 18:00:00 NR 31.2755 149.097 main 903 903 __________P___ -1 31.2755 149.097 4 11 36
1945204N09137 1945 38 WP MM EDNA 1945-07-30 21:00:00 NR 31.7000 149.500 main 910 __________O___ -1 31.7000 149.500 4 11 39

デジタル台風データ・検索

IBTrACS Databaseについて

本データベースは、米国NOAAが公開する1842年以降の世界の熱帯低気圧のベストトラックデータアーカイブInternational Best Track Archive for Climate Stewardship (IBTrACS)を、ウェブで閲覧しやすい形式に変換したものです。

最終更新日:2021-10-08